Time;durP1;ratioP1;P1;durP2;ratioP2;P2;SDS_P1;SDS_P2;PMS_P1;PMS_P2;Temp;Humidity;BMP_temperature;BMP_pressure;BME280_temperature;BME280_humidity;BME280_pressure;Samples;Min_cycle;Max_cycle;Signal;HPM_P1;HPM_P2
2023/01/05 00:00:54;;;;;;;;;0.00;0.00;;;;;15.80;91.22;1913.41;4934398;28;45427;-90
2023/01/05 00:03:20;;;;;;;;;0.00;0.00;;;;;15.77;91.17;1195.03;4930524;28;45552;-90
2023/01/05 00:05:46;;;;;;;;;0.00;0.00;;;;;15.26;91.04;1814.69;4938398;28;45510;-90
2023/01/05 00:08:11;;;;;;;;;0.00;0.00;;;;;15.24;91.45;2733.81;4935445;28;46301;-90
2023/01/05 00:24:24;;;;;;;;;0.00;0.00;;;;;15.06;90.00;-3429.94;4936012;28;45424;-89
2023/01/05 00:26:52;;;;;;;;;0.00;0.00;;;;;14.90;89.98;-2844.34;4936148;28;46367;-90
2023/01/05 00:29:17;;;;;;;;;0.00;0.00;;;;;14.87;89.58;-4198.19;4911837;28;46507;-90
2023/01/05 00:31:43;;;;;;;;;0.25;0.00;;;;;14.70;89.74;-5788.56;4932828;28;45570;-90
2023/01/05 00:34:08;;;;;;;;;0.00;0.00;;;;;14.05;89.28;-6753.56;4936432;28;45617;-90
2023/01/05 00:36:33;;;;;;;;;1.00;0.00;;;;;14.95;88.96;-8839.72;4935749;28;45593;-91
2023/01/05 00:38:59;;;;;;;;;1.00;0.00;;;;;15.27;88.74;-9999.38;4929387;28;45473;-89
2023/01/05 00:41:24;;;;;;;;;1.25;0.00;;;;;14.22;88.54;-12168.97;4931263;28;45457;-90
2023/01/05 00:43:49;;;;;;;;;0.00;0.00;;;;;15.18;88.55;-13729.72;4931703;28;45439;-90
2023/01/05 00:46:15;;;;;;;;;0.00;0.00;;;;;14.73;88.19;-14415.28;4937366;28;46336;-90
2023/01/05 00:48:40;;;;;;;;;0.00;0.00;;;;;15.36;87.71;-16382.28;4925249;28;47259;-90
2023/01/05 00:51:06;;;;;;;;;0.75;0.00;;;;;14.42;87.49;-17869.28;4930704;28;45459;-89
2023/01/05 00:53:31;;;;;;;;;0.00;0.00;;;;;14.76;86.86;-18145.38;4930207;28;45458;-91
2023/01/05 00:55:57;;;;;;;;;1.00;0.00;;;;;15.49;87.08;-18572.00;4934468;28;45413;-89
2023/01/05 00:58:23;;;;;;;;;0.75;0.00;;;;;14.72;86.79;-19568.13;4928106;28;46538;-89
2023/01/05 01:00:49;;;;;;;;;0.00;0.00;;;;;14.32;87.13;-18158.25;4928482;28;45469;-89
2023/01/05 01:03:14;;;;;;;;;0.00;0.00;;;;;15.50;87.24;-17714.78;4933139;28;45449;-90
2023/01/05 01:05:39;;;;;;;;;0.00;0.00;;;;;14.70;87.53;-17503.63;4917986;28;45667;-91
2023/01/05 01:08:05;;;;;;;;;0.00;0.00;;;;;15.27;87.46;-17586.88;4937054;28;46192;-90
2023/01/05 01:10:30;;;;;;;;;0.00;0.00;;;;;14.89;87.00;-18513.06;4917081;28;45833;-90
2023/01/05 01:12:56;;;;;;;;;0.00;0.00;;;;;15.52;87.23;-19255.38;4911625;28;45717;-90
2023/01/05 01:15:21;;;;;;;;;0.00;0.00;;;;;15.24;86.83;-19516.41;4936688;28;45817;-89
2023/01/05 01:17:47;;;;;;;;;0.00;0.00;;;;;15.14;86.06;-19614.75;4918192;28;47352;-90
2023/01/05 01:20:12;;;;;;;;;0.00;0.00;;;;;14.97;86.05;-19610.47;4929615;28;45543;-89
2023/01/05 01:22:40;;;;;;;;;0.00;0.00;;;;;15.01;86.05;-19611.41;4930190;28;45788;-89
2023/01/05 01:25:06;;;;;;;;;0.00;0.00;;;;;14.83;85.74;-19606.59;4931441;28;45377;-90
2023/01/05 01:27:32;;;;;;;;;0.00;0.00;;;;;14.78;85.35;-19605.50;4932341;28;46532;-90
2023/01/05 01:29:57;;;;;;;;;0.00;0.00;;;;;14.48;85.09;-19597.44;4933872;28;45649;-89
2023/01/05 01:32:23;;;;;;;;;0.00;0.00;;;;;14.89;85.35;-19608.19;4915521;28;45550;-89
2023/01/05 01:34:49;;;;;;;;;0.00;0.00;;;;;14.81;85.42;-19606.03;4930024;28;45543;-89
2023/01/05 01:37:15;;;;;;;;;1.00;0.00;;;;;15.41;85.32;-19621.88;4935242;28;45812;-90
2023/01/05 01:39:41;;;;;;;;;0.00;0.00;;;;;14.42;85.32;-19595.97;4931138;28;45474;-90
2023/01/05 01:42:13;;;;;;;;;0.00;0.00;;;;;14.27;84.93;-19591.94;4913213;28;45758;-90
2023/01/05 01:44:54;;;;;;;;;0.00;0.00;;;;;15.40;85.50;-19621.59;4927638;28;45438;-90
2023/01/05 01:47:30;;;;;;;;;1.00;0.00;;;;;14.57;85.59;-19600.00;4931875;28;46211;-90
2023/01/05 01:49:59;;;;;;;;;0.00;0.00;;;;;14.72;85.16;-19603.88;4938667;28;45520;-90
2023/01/05 01:52:26;;;;;;;;;0.00;0.00;;;;;15.40;85.96;-19621.75;4933333;28;45335;-91
2023/01/05 01:54:52;;;;;;;;;0.00;0.00;;;;;15.32;85.41;-19619.59;4934838;28;45394;-91
2023/01/05 01:57:20;;;;;;;;;0.00;0.00;;;;;15.13;85.67;-19614.63;4932960;28;46290;-90
2023/01/05 01:59:45;;;;;;;;;0.00;0.00;;;;;14.82;85.79;-19606.44;4927983;28;45533;-90
2023/01/05 02:02:12;;;;;;;;;1.00;0.00;;;;;14.95;86.09;-19609.94;4930496;28;45899;-90
2023/01/05 02:04:38;;;;;;;;;0.00;0.00;;;;;15.04;86.12;-19612.22;4927982;28;45452;-90
2023/01/05 02:07:06;;;;;;;;;0.00;0.00;;;;;15.35;85.79;-19620.25;4910740;28;46021;-90
2023/01/05 02:09:31;;;;;;;;;0.00;0.00;;;;;15.03;85.55;-19611.81;4913204;28;45718;-90
2023/01/05 02:12:21;;;;;;;;;0.00;0.00;;;;;15.30;85.11;-19618.94;4914523;28;46897;-90
2023/01/05 02:15:09;;;;;;;;;0.00;0.00;;;;;14.98;84.83;-19610.75;4915922;28;45685;-89
2023/01/05 02:18:08;;;;;;;;;0.00;0.00;;;;;15.29;84.71;-19618.66;4909445;28;47108;-90
2023/01/05 02:20:39;;;;;;;;;0.00;0.00;;;;;15.29;84.18;-19618.66;4908207;28;45888;-91
2023/01/05 02:23:20;;;;;;;;;0.00;0.00;;;;;15.29;83.85;-19618.66;4908666;28;45551;-90
2023/01/05 02:26:00;;;;;;;;;0.00;0.00;;;;;15.28;83.66;-19618.53;4912482;28;45514;-89
2023/01/05 02:28:42;;;;;;;;;0.00;0.00;;;;;15.26;83.75;-19617.84;4909894;28;47467;-89
2023/01/05 02:31:21;;;;;;;;;0.00;0.00;;;;;15.10;83.65;-19613.81;4905765;28;45507;-89
2023/01/05 02:34:06;;;;;;;;;0.00;0.00;;;;;15.23;83.41;-19617.03;4889142;28;46794;-90
2023/01/05 02:37:06;;;;;;;;;0.00;0.00;;;;;15.21;83.17;-19616.66;4907742;28;45672;-90
2023/01/05 02:39:35;;;;;;;;;0.00;0.00;;;;;14.87;82.45;-19607.78;4908020;28;46501;-90
2023/01/05 02:42:08;;;;;;;;;0.67;0.67;;;;;15.22;82.46;-19616.91;4912809;28;45764;-90
2023/01/05 02:44:33;;;;;;;;;0.00;0.00;;;;;14.84;82.01;-19606.97;4918736;28;45473;-89
2023/01/05 02:47:05;;;;;;;;;0.00;0.00;;;;;14.93;81.82;-19609.41;4917946;28;45559;-90
2023/01/05 02:49:37;;;;;;;;;1.00;1.00;;;;;14.86;81.84;-19607.50;4912910;28;46366;-89
2023/01/05 02:52:07;;;;;;;;;1.00;1.00;;;;;14.97;81.50;-19610.34;4913196;28;45614;-90
2023/01/05 02:54:42;;;;;;;;;2.00;1.00;;;;;15.13;81.55;-19614.63;4918155;28;45360;-90
2023/01/05 02:57:14;;;;;;;;;1.67;1.67;;;;;15.12;81.41;-19614.34;4914603;28;45803;-89
2023/01/05 02:59:50;;;;;;;;;1.67;0.00;;;;;15.07;81.69;-19613.03;4914602;28;47556;-91
2023/01/05 03:02:27;;;;;;;;;2.00;1.00;;;;;14.88;81.99;-19607.91;4914459;28;45609;-90
2023/01/05 03:04:58;;;;;;;;;4.00;3.00;;;;;14.60;81.93;-19600.66;4920778;28;45943;-89
2023/01/05 03:07:29;;;;;;;;;1.67;1.67;;;;;15.14;81.60;-19614.91;4935234;28;45549;-90
2023/01/05 03:09:55;;;;;;;;;1.33;1.33;;;;;14.86;81.98;-19607.50;4933993;28;46701;-91
2023/01/05 03:15:19;;;;;;;;;3.00;3.00;;;;;15.04;81.73;-19612.09;4934957;28;45482;-92
2023/01/05 03:17:49;;;;;;;;;3.67;3.67;;;;;15.19;81.48;-19616.09;4930215;28;46467;-91
2023/01/05 03:20:22;;;;;;;;;1.33;1.33;;;;;15.02;81.60;-19611.53;4933279;28;46474;-92
2023/01/05 03:37:35;;;;;;;;;2.67;2.67;;;;;14.71;81.11;-19603.63;4938595;28;45569;-91
2023/01/05 03:40:03;;;;;;;;;1.00;1.00;;;;;14.93;81.73;-19609.25;4932460;28;45481;-90
2023/01/05 03:42:30;;;;;;;;;2.00;2.00;;;;;15.24;81.40;-19617.31;4931810;28;46537;-91
2023/01/05 03:44:55;;;;;;;;;1.00;1.00;;;;;15.24;81.58;-19617.44;4929274;28;45426;-91
2023/01/05 03:47:22;;;;;;;;;3.33;2.00;;;;;15.23;81.39;-19617.19;4928940;28;45336;-91
2023/01/05 03:49:48;;;;;;;;;3.00;2.00;;;;;15.27;81.70;-19618.13;4930388;28;45847;-90
2023/01/05 03:52:13;;;;;;;;;2.67;2.33;;;;;15.29;81.44;-19618.66;4932281;28;46125;-92
2023/01/05 03:54:38;;;;;;;;;2.67;1.67;;;;;14.88;81.16;-19607.91;4929089;28;45478;-91
2023/01/05 03:57:03;;;;;;;;;1.33;1.33;;;;;15.04;81.71;-19612.22;4929466;28;45512;-92
2023/01/05 03:59:29;;;;;;;;;4.00;2.33;;;;;15.30;82.13;-19619.06;4930142;28;45387;-91
2023/01/05 04:01:54;;;;;;;;;1.67;1.67;;;;;14.94;81.85;-19609.66;4928869;28;46260;-91
2023/01/05 04:04:20;;;;;;;;;3.00;1.33;;;;;15.05;81.35;-19612.34;4934937;28;46123;-91
2023/01/05 04:06:45;;;;;;;;;3.67;2.00;;;;;15.34;81.78;-19620.13;4935983;28;45529;-91
2023/01/05 04:09:10;;;;;;;;;2.00;2.00;;;;;15.25;81.94;-19617.72;4935303;28;45517;-92
2023/01/05 04:11:36;;;;;;;;;3.00;1.33;;;;;14.92;81.66;-19609.13;4934447;28;46991;-91
2023/01/05 04:14:01;;;;;;;;;3.33;2.00;;;;;15.07;82.13;-19612.88;4936143;28;45579;-92
2023/01/05 04:16:27;;;;;;;;;3.67;1.67;;;;;15.34;81.75;-19620.13;4932167;28;45505;-92
2023/01/05 04:18:52;;;;;;;;;3.33;1.33;;;;;15.10;81.65;-19613.81;4932864;28;45483;-91
2023/01/05 04:21:18;;;;;;;;;0.00;0.00;;;;;15.35;82.12;-19620.41;4933173;28;46392;-92
2023/01/05 04:23:43;;;;;;;;;0.67;0.67;;;;;15.36;81.78;-19620.53;4937872;28;45772;-92
2023/01/05 04:26:09;;;;;;;;;1.00;1.00;;;;;15.29;82.15;-19618.66;4920606;28;45422;-92
2023/01/05 04:28:34;;;;;;;;;3.00;0.67;;;;;15.36;81.98;-19620.53;4934690;28;45276;-91
2023/01/05 04:30:59;;;;;;;;;1.00;1.00;;;;;15.36;81.92;-19620.53;4926159;28;46380;-91
2023/01/05 04:33:25;;;;;;;;;1.00;1.00;;;;;14.89;81.68;-19608.31;4921467;28;45784;-91
2023/01/05 04:35:51;;;;;;;;;0.67;0.00;;;;;15.06;82.19;-19612.63;4933276;28;45522;-91
2023/01/05 04:38:16;;;;;;;;;1.00;1.00;;;;;15.21;81.89;-19616.66;4931497;28;45305;-91
2023/01/05 04:40:47;;;;;;;;;1.00;1.00;;;;;15.17;81.79;-19615.72;4932968;28;45447;-92
2023/01/05 04:43:12;;;;;;;;;0.00;0.00;;;;;14.96;82.16;-19610.19;4934461;28;45387;-91
2023/01/05 04:45:37;;;;;;;;;2.67;1.00;;;;;15.22;82.37;-19616.78;4931551;28;45347;-91
2023/01/05 04:48:03;;;;;;;;;0.00;0.00;;;;;14.81;82.29;-19606.19;4930871;28;45457;-91
2023/01/05 04:50:28;;;;;;;;;0.00;0.00;;;;;15.31;82.46;-19619.31;4927828;28;45481;-91
2023/01/05 04:52:54;;;;;;;;;0.00;0.00;;;;;15.12;82.33;-19614.22;4931873;28;45459;-90
2023/01/05 04:55:19;;;;;;;;;1.00;1.00;;;;;14.75;82.97;-19604.56;4936214;28;45506;-91
2023/01/05 04:57:44;;;;;;;;;1.00;1.00;;;;;15.34;82.85;-19620.13;4938782;28;45509;-91
2023/01/05 05:00:10;;;;;;;;;3.00;1.00;;;;;15.15;82.41;-19615.16;4934002;28;46084;-91
2023/01/05 05:02:35;;;;;;;;;2.33;1.00;;;;;15.36;82.43;-19620.53;4938919;28;45431;-91
2023/01/05 05:05:01;;;;;;;;;1.67;1.00;;;;;15.38;82.72;-19621.22;4925625;28;45613;-91
2023/01/05 05:07:27;;;;;;;;;1.33;1.00;;;;;15.38;82.63;-19621.22;4937342;28;45446;-92
2023/01/05 05:09:52;;;;;;;;;1.67;1.00;;;;;15.03;82.99;-19611.81;4934770;28;45590;-91
2023/01/05 05:12:19;;;;;;;;;0.67;0.67;;;;;15.36;83.03;-19620.66;4930532;28;45428;-91
2023/01/05 05:14:48;;;;;;;;;1.00;1.00;;;;;15.36;82.81;-19620.53;4937538;28;45542;-91
2023/01/05 05:17:14;;;;;;;;;1.00;1.00;;;;;15.09;82.75;-19613.56;4939115;28;45538;-91
2023/01/05 05:19:40;;;;;;;;;1.00;1.00;;;;;15.34;82.94;-19620.13;4934225;28;46209;-91
2023/01/05 05:22:05;;;;;;;;;1.00;1.00;;;;;15.24;82.88;-19617.31;4929896;28;45589;-91
2023/01/05 05:24:31;;;;;;;;;1.00;1.00;;;;;15.19;83.11;-19616.25;4930931;28;45408;-91
2023/01/05 05:26:56;;;;;;;;;0.00;0.00;;;;;15.34;83.30;-19620.00;4938718;28;45808;-92
2023/01/05 05:29:23;;;;;;;;;1.00;0.33;;;;;15.27;83.08;-19618.25;4934897;28;46701;-91
2023/01/05 05:31:49;;;;;;;;;0.33;0.33;;;;;15.31;83.19;-19619.31;4925923;28;45284;-91
2023/01/05 05:34:14;;;;;;;;;2.00;1.00;;;;;15.27;83.53;-19618.25;4929313;28;45505;-91
2023/01/05 05:36:40;;;;;;;;;0.00;0.00;;;;;15.20;83.45;-19616.50;4930261;28;45543;-91
2023/01/05 05:39:05;;;;;;;;;0.00;0.00;;;;;15.14;83.67;-19614.75;4927679;28;47472;-92
2023/01/05 05:41:30;;;;;;;;;0.00;0.00;;;;;15.30;83.66;-19619.06;4935169;28;45355;-92
2023/01/05 05:43:59;;;;;;;;;0.00;0.00;;;;;15.30;83.81;-19619.06;4923603;28;45530;-92
2023/01/05 05:46:26;;;;;;;;;0.00;0.00;;;;;15.29;83.83;-19618.78;4938640;28;45348;-92
2023/01/05 05:48:52;;;;;;;;;0.00;0.00;;;;;15.03;84.04;-19611.94;4932104;28;46425;-91
2023/01/05 05:51:17;;;;;;;;;0.00;0.00;;;;;15.26;84.17;-19617.84;4929095;28;45630;-92
2023/01/05 05:53:42;;;;;;;;;0.00;0.00;;;;;15.23;83.69;-19617.03;4934055;28;45565;-91
2023/01/05 05:56:08;;;;;;;;;0.00;0.00;;;;;15.32;84.00;-19619.47;4928667;28;45665;-92
2023/01/05 05:58:33;;;;;;;;;0.00;0.00;;;;;14.84;83.93;-19606.97;4937106;28;46988;-91
2023/01/05 06:00:58;;;;;;;;;1.00;1.00;;;;;15.33;83.65;-19619.88;4932403;28;45414;-89
2023/01/05 06:03:24;;;;;;;;;1.00;1.00;;;;;15.32;83.71;-19619.47;4933507;28;46266;-91
2023/01/05 06:05:49;;;;;;;;;0.00;0.00;;;;;15.09;84.28;-19613.56;4912129;28;45793;-90
2023/01/05 06:08:15;;;;;;;;;1.00;1.00;;;;;15.09;84.02;-19613.44;4891977;28;47196;-91
2023/01/05 06:10:40;;;;;;;;;0.00;0.00;;;;;15.22;83.85;-19616.78;4907728;28;45479;-91
2023/01/05 06:13:05;;;;;;;;;0.00;0.00;;;;;15.13;84.28;-19614.50;4913846;28;45380;-91
2023/01/05 06:15:31;;;;;;;;;0.00;0.00;;;;;15.30;84.49;-19619.06;4916787;28;45598;-90
2023/01/05 06:17:56;;;;;;;;;0.00;0.00;;;;;15.01;84.44;-19611.28;4915048;28;46045;-90
2023/01/05 06:20:22;;;;;;;;;0.00;0.00;;;;;15.22;84.38;-19616.78;4910944;28;45876;-89
2023/01/05 06:22:47;;;;;;;;;0.00;0.00;;;;;15.15;84.42;-19615.16;4909651;28;45657;-90
2023/01/05 06:25:12;;;;;;;;;0.00;0.00;;;;;15.26;84.38;-19617.97;4910313;28;45473;-90
2023/01/05 06:27:38;;;;;;;;;0.00;0.00;;;;;15.15;84.19;-19615.16;4912480;28;46017;-90
2023/01/05 06:30:03;;;;;;;;;0.00;0.00;;;;;15.26;84.14;-19617.84;4913971;28;45623;-91
2023/01/05 06:32:29;;;;;;;;;0.00;0.00;;;;;15.28;84.70;-19618.38;4920745;28;45521;-93
2023/01/05 06:34:54;;;;;;;;;1.00;1.00;;;;;15.19;84.09;-19616.09;4906645;28;45518;-87
2023/01/05 06:37:20;;;;;;;;;0.00;0.00;;;;;14.94;84.19;-19609.53;4914924;28;46629;-89
2023/01/05 06:39:45;;;;;;;;;0.00;0.00;;;;;15.20;84.06;-19616.50;4917846;28;45553;-88
2023/01/05 06:42:11;;;;;;;;;0.00;0.00;;;;;15.16;84.13;-19615.44;4909058;28;45841;-86
2023/01/05 06:44:36;;;;;;;;;0.00;0.00;;;;;15.24;84.52;-19617.31;4921044;28;45495;-87
2023/01/05 06:47:02;;;;;;;;;1.00;1.00;;;;;15.24;84.65;-19617.44;4909659;28;46087;-88
2023/01/05 06:49:27;;;;;;;;;0.00;0.00;;;;;15.25;84.14;-19617.59;4910464;28;45335;-87
2023/01/05 06:51:52;;;;;;;;;0.00;0.00;;;;;15.31;84.36;-19619.19;4891138;28;47140;-93
2023/01/05 06:54:18;;;;;;;;;0.00;0.00;;;;;15.12;84.41;-19614.22;4919616;28;45678;-89
2023/01/05 06:56:43;;;;;;;;;0.67;0.67;;;;;15.31;84.38;-19619.19;4921172;28;45478;-89
2023/01/05 06:59:11;;;;;;;;;1.00;1.00;;;;;15.18;84.15;-19615.84;4922535;28;45371;-89
2023/01/05 07:01:36;;;;;;;;;1.00;1.00;;;;;15.17;84.71;-19615.56;4919305;28;45500;-89
2023/01/05 07:04:01;;;;;;;;;1.00;1.00;;;;;15.15;84.72;-19615.16;4917064;28;45638;-90
2023/01/05 07:06:27;;;;;;;;;0.00;0.00;;;;;15.35;84.41;-19620.41;4910450;28;46262;-89
2023/01/05 07:08:52;;;;;;;;;1.00;1.00;;;;;15.28;84.41;-19618.53;4900791;28;45943;-89
2023/01/05 07:11:18;;;;;;;;;0.00;0.00;;;;;15.35;84.34;-19620.25;4892706;28;45478;-88
2023/01/05 07:13:47;;;;;;;;;0.00;0.00;;;;;15.36;84.75;-19620.53;4898377;28;45964;-90
2023/01/05 07:16:13;;;;;;;;;1.00;1.00;;;;;15.38;84.51;-19621.22;4907103;28;47210;-91
2023/01/05 07:18:38;;;;;;;;;1.00;1.00;;;;;15.14;84.87;-19614.75;4904778;28;45623;-90
2023/01/05 07:21:03;;;;;;;;;1.00;1.00;;;;;15.39;85.00;-19621.34;4910746;28;45527;-90
2023/01/05 07:23:29;;;;;;;;;2.33;2.33;;;;;15.13;84.97;-19614.63;4910960;28;45426;-89
2023/01/05 07:25:54;;;;;;;;;1.00;1.00;;;;;15.40;84.89;-19621.59;4910596;28;45524;-89
2023/01/05 07:28:19;;;;;;;;;1.00;1.00;;;;;15.04;84.89;-19612.09;4912853;28;45507;-88
2023/01/05 07:30:51;;;;;;;;;2.00;2.00;;;;;15.18;85.11;-19615.84;4920071;28;45510;-88
2023/01/05 07:33:16;;;;;;;;;0.00;0.00;;;;;15.45;85.07;-19622.81;4928898;28;45602;-89
2023/01/05 07:35:41;;;;;;;;;0.00;0.00;;;;;15.37;85.21;-19620.94;4916373;28;46643;-89
2023/01/05 07:38:07;;;;;;;;;1.00;1.00;;;;;15.47;85.03;-19623.47;4921065;28;45389;-89
2023/01/05 07:40:32;;;;;;;;;1.00;1.00;;;;;15.49;85.08;-19624.03;4915624;28;45394;-89
2023/01/05 07:42:57;;;;;;;;;1.00;1.00;;;;;15.19;84.87;-19616.09;4922178;28;46152;-91
2023/01/05 07:45:23;;;;;;;;;1.00;1.00;;;;;15.53;85.13;-19624.97;4899029;28;48035;-90
2023/01/05 07:47:48;;;;;;;;;2.00;2.00;;;;;15.54;85.38;-19625.34;4920254;28;47080;-89
2023/01/05 07:50:13;;;;;;;;;1.00;1.00;;;;;15.23;85.21;-19617.19;4909263;28;45591;-90
2023/01/05 07:52:39;;;;;;;;;1.00;1.00;;;;;15.44;85.09;-19622.53;4920934;28;45540;-89
2023/01/05 07:55:05;;;;;;;;;3.67;3.67;;;;;14.68;85.00;-19602.69;4912589;28;46368;-89
2023/01/05 07:57:30;;;;;;;;;1.00;1.00;;;;;15.47;85.14;-19623.34;4906454;28;45500;-89
2023/01/05 07:59:56;;;;;;;;;3.00;3.00;;;;;15.60;85.53;-19626.97;4908221;28;45467;-89
2023/01/05 08:02:21;;;;;;;;;2.00;2.00;;;;;15.39;85.38;-19621.34;4911021;28;45951;-91
2023/01/05 08:04:46;;;;;;;;;2.00;2.00;;;;;15.62;85.27;-19627.50;4921512;28;46166;-91
2023/01/05 08:07:14;;;;;;;;;2.00;2.00;;;;;15.63;85.31;-19627.78;4933156;28;45757;-91
2023/01/05 08:12:24;;;;;;;;;3.00;3.00;;;;;15.38;85.32;-19621.22;4928165;28;45522;-91
2023/01/05 08:14:49;;;;;;;;;1.00;1.00;;;;;15.67;85.51;-19628.72;4940127;28;46831;-91
2023/01/05 08:17:15;;;;;;;;;0.67;0.67;;;;;15.36;85.47;-19620.53;4931428;28;47272;-91
2023/01/05 08:19:40;;;;;;;;;0.00;0.00;;;;;15.44;85.30;-19622.69;4930162;28;45454;-91
2023/01/05 08:22:05;;;;;;;;;0.00;0.00;;;;;15.39;85.20;-19621.34;4936973;28;45309;-90
2023/01/05 08:24:30;;;;;;;;;0.00;0.00;;;;;15.70;85.09;-19629.38;4933764;28;46064;-91
2023/01/05 08:26:56;;;;;;;;;0.00;0.00;;;;;15.49;85.32;-19623.88;4933269;28;45602;-90
2023/01/05 08:29:21;;;;;;;;;0.00;0.00;;;;;15.73;85.26;-19630.19;4937855;28;45594;-89
2023/01/05 08:31:47;;;;;;;;;0.00;0.00;;;;;15.73;85.40;-19630.19;4934700;28;45467;-89
2023/01/05 08:34:12;;;;;;;;;0.33;0.33;;;;;15.65;85.33;-19628.03;4937476;28;46055;-89
2023/01/05 08:36:38;;;;;;;;;1.00;1.00;;;;;15.51;85.52;-19624.56;4937507;28;45610;-89
2023/01/05 08:39:04;;;;;;;;;2.00;2.00;;;;;15.61;85.20;-19627.25;4935679;28;45490;-89
2023/01/05 08:41:35;;;;;;;;;2.00;2.00;;;;;15.79;85.68;-19631.81;4933507;28;45582;-89
2023/01/05 08:44:03;;;;;;;;;2.00;2.00;;;;;15.67;85.11;-19628.72;4935112;28;47070;-90
2023/01/05 08:46:33;;;;;;;;;1.00;1.00;;;;;15.70;85.29;-19629.38;4939914;28;45401;-90
2023/01/05 08:49:00;;;;;;;;;2.00;2.00;;;;;15.65;85.42;-19628.03;4938351;28;45411;-89
2023/01/05 08:51:26;;;;;;;;;1.00;1.00;;;;;15.81;85.12;-19632.47;4909998;28;46028;-89
2023/01/05 08:53:52;;;;;;;;;0.00;0.00;;;;;15.86;85.44;-19633.56;4935397;28;45418;-90
2023/01/05 08:56:17;;;;;;;;;1.33;1.33;;;;;15.88;85.01;-19634.09;4927906;28;45557;-89
2023/01/05 08:58:43;;;;;;;;;2.67;2.67;;;;;15.80;84.96;-19632.06;4929946;28;45482;-89
2023/01/05 09:01:10;;;;;;;;;2.33;2.33;;;;;15.92;84.59;-19635.28;4937286;28;45511;-90
2023/01/05 09:03:36;;;;;;;;;1.00;1.00;;;;;15.56;84.78;-19625.91;4938230;28;47324;-91
2023/01/05 09:06:04;;;;;;;;;0.33;0.33;;;;;15.76;84.72;-19631.00;4937137;28;45552;-91
2023/01/05 09:08:31;;;;;;;;;1.33;1.33;;;;;15.86;84.60;-19633.69;4931399;28;45766;-92
2023/01/05 09:11:21;;;;;;;;;2.33;2.33;;;;;15.89;84.58;-19634.47;4936715;28;45399;-91
2023/01/05 09:14:01;;;;;;;;;1.00;1.00;;;;;16.00;84.39;-19637.31;4927752;28;47400;-92
2023/01/05 09:16:29;;;;;;;;;0.00;0.00;;;;;16.02;84.19;-19637.97;4924525;28;45584;-94
2023/01/05 09:18:56;;;;;;;;;1.00;1.00;;;;;15.84;84.63;-19633.16;4927297;28;45490;-91
2023/01/05 09:21:22;;;;;;;;;0.00;0.00;;;;;15.90;84.04;-19634.75;4940414;28;45670;-93
2023/01/05 09:23:48;;;;;;;;;1.00;1.00;;;;;15.68;84.23;-19628.84;4928995;28;45551;-91
2023/01/05 09:26:33;;;;;;;;;1.00;1.00;;;;;15.45;84.15;-19622.94;4929598;28;45621;-91
2023/01/05 09:28:59;;;;;;;;;1.00;1.00;;;;;15.26;84.01;-19617.97;4930997;28;46263;-91
2023/01/05 09:31:25;;;;;;;;;1.00;1.00;;;;;15.85;83.97;-19633.41;4934360;28;45545;-91
2023/01/05 09:33:50;;;;;;;;;2.33;2.33;;;;;16.20;83.91;-19642.53;4929733;28;46863;-90
2023/01/05 09:36:17;;;;;;;;;0.00;0.00;;;;;16.13;84.12;-19640.66;4925745;28;45689;-90
2023/01/05 09:38:50;;;;;;;;;0.00;0.00;;;;;16.04;83.82;-19638.50;4939026;28;45549;-89
2023/01/05 09:41:21;;;;;;;;;0.33;0.33;;;;;16.27;83.72;-19644.41;4934468;28;45605;-92
2023/01/05 09:43:53;;;;;;;;;0.00;0.00;;;;;16.22;83.61;-19643.06;4932068;28;46475;-90
2023/01/05 09:46:23;;;;;;;;;0.00;0.00;;;;;16.33;83.38;-19646.00;4933644;28;45923;-90
2023/01/05 09:48:52;;;;;;;;;0.00;0.00;;;;;15.94;83.51;-19635.81;4920961;28;45628;-91
2023/01/05 09:51:18;;;;;;;;;0.00;0.00;;;;;16.13;83.40;-19640.66;4935613;28;45547;-93
2023/01/05 09:53:44;;;;;;;;;0.00;0.00;;;;;16.27;83.57;-19644.28;4926956;28;47180;-93
2023/01/05 09:56:34;;;;;;;;;0.00;0.00;;;;;16.39;83.17;-19647.50;4933863;28;45531;-94
2023/01/05 09:59:12;;;;;;;;;1.00;1.00;;;;;16.41;83.28;-19648.03;4936366;28;45396;-93
2023/01/05 10:01:39;;;;;;;;;0.75;0.75;;;;;16.12;83.09;-19640.50;4936473;28;45436;-95
2023/01/05 10:04:13;;;;;;;;;0.67;0.67;;;;;16.51;83.16;-19650.56;4936025;28;45398;-91
2023/01/05 10:06:43;;;;;;;;;1.00;1.00;;;;;16.33;83.24;-19646.00;4907627;28;45538;-96
2023/01/05 10:09:19;;;;;;;;;3.33;1.00;;;;;16.54;83.32;-19651.50;4924433;28;45388;-96
2023/01/05 10:14:47;;;;;;;;;1.00;1.00;;;;;16.21;83.10;-19642.78;4912866;28;45832;-92
2023/01/05 10:17:18;;;;;;;;;3.00;2.00;;;;;16.12;82.95;-19640.38;4909452;28;46659;-92
2023/01/05 10:19:44;;;;;;;;;2.00;1.00;;;;;16.56;82.81;-19651.91;4909087;28;45351;-93
2023/01/05 10:22:41;;;;;;;;;2.00;2.00;;;;;16.53;82.95;-19651.25;4907347;28;45458;-96
2023/01/05 10:25:20;;;;;;;;;1.33;1.33;;;;;16.52;82.95;-19650.97;4917909;28;47218;-94
2023/01/05 10:28:40;;;;;;;;;1.00;1.00;;;;;15.81;83.04;-19632.34;4920992;28;45483;-94
2023/01/05 10:31:53;;;;;;;;;2.00;1.00;;;;;16.51;83.24;-19650.56;4907478;28;45487;-93
2023/01/05 10:34:18;;;;;;;;;2.00;2.00;;;;;16.50;83.25;-19650.44;4839964;29;45377;-93
2023/01/05 10:36:58;;;;;;;;;1.00;1.00;;;;;16.55;83.24;-19651.78;4842791;29;46377;-93
2023/01/05 10:39:50;;;;;;;;;1.67;1.67;;;;;16.59;82.77;-19652.84;4844163;29;46574;-95
2023/01/05 10:42:19;;;;;;;;;1.33;1.00;;;;;16.62;83.10;-19653.50;4837152;29;45510;-91
2023/01/05 10:44:51;;;;;;;;;1.00;1.00;;;;;16.62;82.85;-19653.50;4835098;29;45487;-91
2023/01/05 10:47:18;;;;;;;;;1.00;1.00;;;;;16.65;82.98;-19654.44;4819284;29;46489;-91
2023/01/05 10:49:46;;;;;;;;;2.00;2.00;;;;;16.68;82.67;-19655.13;4835232;29;45728;-90
2023/01/05 10:52:14;;;;;;;;;2.00;1.00;;;;;16.67;82.71;-19655.00;4830074;29;45436;-89
2023/01/05 10:54:44;;;;;;;;;2.00;2.00;;;;;16.64;82.83;-19654.19;4831409;29;45378;-88
2023/01/05 10:57:27;;;;;;;;;1.00;1.00;;;;;16.66;82.49;-19654.59;4832061;29;46558;-91
2023/01/05 10:59:58;;;;;;;;;1.67;1.67;;;;;16.57;82.92;-19652.31;4839121;29;45374;-92
2023/01/05 11:02:27;;;;;;;;;1.33;1.33;;;;;16.46;82.50;-19649.38;4818944;29;46026;-90
2023/01/05 11:04:54;;;;;;;;;1.00;1.00;;;;;16.24;83.00;-19643.72;4852652;28;45598;-91
2023/01/05 11:07:23;;;;;;;;;0.00;0.00;;;;;16.73;83.58;-19656.47;4930711;28;47396;-96
2023/01/05 11:09:49;;;;;;;;;2.00;2.00;;;;;16.30;84.24;-19645.22;4948893;23;45303;-94
2023/01/05 11:12:19;;;;;;;;;1.50;1.00;;;;;14.51;84.67;-19598.25;4913525;28;45469;-95
2023/01/05 11:15:00;;;;;;;;;1.25;1.25;;;;;15.20;84.69;-19616.50;4904881;28;45621;-96
2023/01/05 11:17:28;;;;;;;;;0.00;0.00;;;;;15.74;85.01;-19630.47;4903263;28;47646;-96
2023/01/05 11:19:56;;;;;;;;;0.25;0.25;;;;;16.13;85.20;-19640.78;4899830;28;45678;-93
2023/01/05 11:22:32;;;;;;;;;2.00;2.00;;;;;16.72;84.73;-19656.19;4908060;28;45421;-95
2023/01/05 11:25:26;;;;;;;;;2.00;2.00;;;;;16.69;84.71;-19655.38;4909066;28;45777;-95
2023/01/05 11:28:17;;;;;;;;;0.75;0.75;;;;;16.63;84.63;-19653.91;4918580;28;47087;-96
2023/01/05 11:30:57;;;;;;;;;3.33;3.33;;;;;16.65;85.24;-19654.31;4914307;28;45400;-94
2023/01/05 11:33:29;;;;;;;;;6.00;6.00;;;;;16.52;84.93;-19650.97;4931331;23;45527;-90
2023/01/05 11:35:59;;;;;;;;;0.00;0.00;;;;;16.66;84.95;-19654.59;4901250;28;46535;-93
2023/01/05 11:38:35;;;;;;;;;0.75;0.75;;;;;16.39;84.59;-19647.63;4888170;29;47149;-96
2023/01/05 11:41:01;;;;;;;;;0.00;0.00;;;;;15.08;84.37;-19613.28;4899641;28;45339;-96
2023/01/05 11:43:31;;;;;;;;;0.00;0.00;;;;;15.15;84.71;-19615.03;4888369;28;45778;-94
2023/01/05 11:46:00;;;;;;;;;0.00;0.00;;;;;16.61;84.88;-19653.38;4910399;28;45619;-93
2023/01/05 11:48:30;;;;;;;;;0.00;0.00;;;;;15.79;84.12;-19631.81;4898520;28;47200;-92
2023/01/05 11:50:56;;;;;;;;;0.00;0.00;;;;;15.90;84.48;-19634.63;4903414;28;45389;-94
2023/01/05 11:53:22;;;;;;;;;0.00;0.00;;;;;16.61;84.35;-19653.38;4884385;29;45687;-89
2023/01/05 11:55:59;;;;;;;;;0.00;0.00;;;;;16.42;84.23;-19648.28;4909700;28;45589;-89
2023/01/05 11:58:42;;;;;;;;;0.00;0.00;;;;;16.63;84.46;-19653.78;4897155;28;46002;-91
2023/01/05 12:01:31;;;;;;;;;0.00;0.00;;;;;16.62;84.19;-19653.50;4896967;28;45467;-89
2023/01/05 12:04:20;;;;;;;;;0.00;0.00;;;;;15.58;84.22;-19626.31;4885641;28;45682;-92
2023/01/05 12:06:55;;;;;;;;;0.25;0.25;;;;;15.09;84.16;-19613.44;4903526;28;45447;-93
2023/01/05 12:09:27;;;;;;;;;0.33;0.33;;;;;16.66;84.15;-19654.59;4915408;28;47385;-93
2023/01/05 12:12:11;;;;;;;;;0.33;0.33;;;;;15.42;83.70;-19622.16;4920958;23;45552;-90